Time;durP1;ratioP1;P1;durP2;ratioP2;P2;SDS_P1;SDS_P2;PMS_P1;PMS_P2;Temp;Humidity;BMP_temperature;BMP_pressure;BME280_temperature;BME280_humidity;BME280_pressure;Samples;Min_cycle;Max_cycle;Signal;HPM_P1;HPM_P2
2022/10/02 00:02:13;;;;;;;11.10;3.75;;;;;;;;;;5121310;27;20397;-71
2022/10/02 00:05:02;;;;;;;9.98;4.05;;;;;;;;;;5135848;27;20012;-71
2022/10/02 00:07:59;;;;;;;11.63;4.15;;;;;;;;;;5120996;27;20097;-71
2022/10/02 00:10:56;;;;;;;12.95;4.18;;;;;;;;;;5136470;27;20034;-72
2022/10/02 00:13:46;;;;;;;9.98;3.75;;;;;;;;;;5119591;27;20069;-72
2022/10/02 00:16:38;;;;;;;10.07;3.80;;;;;;;;;;5135812;27;20037;-72
2022/10/02 00:19:24;;;;;;;8.27;4.70;;;;;;;;;;5135366;27;20030;-72
2022/10/02 00:22:15;;;;;;;10.75;4.57;;;;;;;;;;5136322;27;20076;-72
2022/10/02 00:25:36;;;;;;;11.80;4.97;;;;;;;;;;5120736;27;20015;-72
2022/10/02 00:28:30;;;;;;;13.57;4.55;;;;;;;;;;5031511;28;20040;-72
2022/10/02 00:31:18;;;;;;;9.90;4.60;;;;;;;;;;5131486;27;20050;-71
2022/10/02 00:34:20;;;;;;;9.93;4.30;;;;;;;;;;5120772;27;20026;-72
2022/10/02 00:37:08;;;;;;;10.55;4.90;;;;;;;;;;5135943;27;20055;-72
2022/10/02 00:40:01;;;;;;;9.52;4.47;;;;;;;;;;5120477;27;20462;-72
2022/10/02 00:42:58;;;;;;;10.82;4.70;;;;;;;;;;5135976;27;20440;-70
2022/10/02 00:45:51;;;;;;;10.05;4.82;;;;;;;;;;5134700;27;20402;-71
2022/10/02 00:48:39;;;;;;;14.00;4.80;;;;;;;;;;5120692;27;20064;-71
2022/10/02 00:51:30;;;;;;;9.23;4.50;;;;;;;;;;5134500;27;20025;-71
2022/10/02 00:54:35;;;;;;;10.98;4.20;;;;;;;;;;5134638;27;20043;-71
2022/10/02 00:57:20;;;;;;;10.05;4.28;;;;;;;;;;5135059;27;20456;-71
2022/10/02 01:00:12;;;;;;;9.65;4.28;;;;;;;;;;5120404;27;20050;-72
2022/10/02 01:02:58;;;;;;;10.80;4.25;;;;;;;;;;5134688;27;20429;-72
2022/10/02 01:05:44;;;;;;;10.85;4.47;;;;;;;;;;5134333;27;20027;-71
2022/10/02 01:08:30;;;;;;;6.68;3.97;;;;;;;;;;5120504;27;20047;-71
2022/10/02 01:11:15;;;;;;;10.77;4.20;;;;;;;;;;5135301;27;20117;-71
2022/10/02 01:14:01;;;;;;;14.75;4.57;;;;;;;;;;5134949;27;20011;-71
2022/10/02 01:16:47;;;;;;;12.70;4.70;;;;;;;;;;5135689;27;20015;-72
2022/10/02 01:19:35;;;;;;;10.98;4.70;;;;;;;;;;5121119;28;20077;-71
2022/10/02 01:22:29;;;;;;;12.02;4.55;;;;;;;;;;5134004;28;20035;-72
2022/10/02 01:25:15;;;;;;;11.40;4.78;;;;;;;;;;5133736;27;20030;-72
2022/10/02 01:28:01;;;;;;;9.65;5.35;;;;;;;;;;5138057;27;20088;-72
2022/10/02 01:30:48;;;;;;;7.43;4.57;;;;;;;;;;5137969;27;20098;-71
2022/10/02 01:33:35;;;;;;;9.80;5.00;;;;;;;;;;5124401;27;20039;-71
2022/10/02 01:36:21;;;;;;;12.48;4.50;;;;;;;;;;5139175;27;20487;-73
2022/10/02 01:39:07;;;;;;;10.70;4.85;;;;;;;;;;5138530;27;20023;-72
2022/10/02 01:41:54;;;;;;;10.95;4.78;;;;;;;;;;5139232;27;20038;-73
2022/10/02 01:44:40;;;;;;;8.95;4.28;;;;;;;;;;5139186;27;20444;-73
2022/10/02 01:47:37;;;;;;;9.48;4.90;;;;;;;;;;5138277;27;20451;-74
2022/10/02 01:50:30;;;;;;;12.40;4.72;;;;;;;;;;5138981;27;20515;-74
2022/10/02 01:53:23;;;;;;;10.43;4.82;;;;;;;;;;5138661;27;20015;-74
2022/10/02 01:56:12;;;;;;;9.43;4.63;;;;;;;;;;5123648;27;20027;-73
2022/10/02 01:59:04;;;;;;;8.98;4.70;;;;;;;;;;5137822;27;20433;-73
2022/10/02 02:02:10;;;;;;;9.02;4.50;;;;;;;;;;5123513;27;20019;-74
2022/10/02 02:05:07;;;;;;;10.20;4.40;;;;;;;;;;5138689;27;20467;-73
2022/10/02 02:08:08;;;;;;;10.88;4.10;;;;;;;;;;5137466;27;20083;-74
2022/10/02 02:11:03;;;;;;;6.85;4.13;;;;;;;;;;5140470;27;20023;-75
2022/10/02 02:14:07;;;;;;;7.57;4.90;;;;;;;;;;5142698;27;20050;-74
2022/10/02 02:17:01;;;;;;;10.25;5.10;;;;;;;;;;5123555;27;20460;-74
2022/10/02 02:20:00;;;;;;;11.18;5.70;;;;;;;;;;5137965;27;20160;-75
2022/10/02 02:22:48;;;;;;;9.70;5.53;;;;;;;;;;5138347;27;20035;-73
2022/10/02 02:25:36;;;;;;;6.97;4.85;;;;;;;;;;5138148;27;20337;-74
2022/10/02 02:28:24;;;;;;;8.80;5.18;;;;;;;;;;5123642;27;20357;-74
2022/10/02 02:31:11;;;;;;;10.60;5.82;;;;;;;;;;5138597;27;20030;-74
2022/10/02 02:34:00;;;;;;;9.32;5.75;;;;;;;;;;5137508;27;20465;-74
2022/10/02 02:36:47;;;;;;;9.60;5.30;;;;;;;;;;5138318;27;20023;-73
2022/10/02 02:39:38;;;;;;;7.55;5.60;;;;;;;;;;5138102;27;20034;-74
2022/10/02 02:42:25;;;;;;;10.57;5.80;;;;;;;;;;5121485;27;20337;-73
2022/10/02 02:45:14;;;;;;;9.13;5.95;;;;;;;;;;5137735;27;20087;-74
2022/10/02 02:48:03;;;;;;;9.27;5.57;;;;;;;;;;5137814;27;20159;-75
2022/10/02 02:50:50;;;;;;;7.70;5.18;;;;;;;;;;5137511;27;20351;-74
2022/10/02 02:53:45;;;;;;;9.57;5.22;;;;;;;;;;5137638;27;20046;-74
2022/10/02 02:56:31;;;;;;;6.70;5.10;;;;;;;;;;5122894;27;20122;-74
2022/10/02 02:59:17;;;;;;;7.05;4.82;;;;;;;;;;5122679;27;20433;-74
2022/10/02 03:02:03;;;;;;;8.40;4.95;;;;;;;;;;5137880;27;20054;-74
2022/10/02 03:04:48;;;;;;;8.95;4.65;;;;;;;;;;5136576;27;20019;-74
2022/10/02 03:07:34;;;;;;;6.43;4.05;;;;;;;;;;5137369;27;20019;-74
2022/10/02 03:10:53;;;;;;;6.00;3.70;;;;;;;;;;5136618;27;20138;-75
2022/10/02 03:13:38;;;;;;;6.00;3.55;;;;;;;;;;5096131;27;20415;-74
2022/10/02 03:16:31;;;;;;;6.03;3.42;;;;;;;;;;5136751;27;20050;-73
2022/10/02 03:19:43;;;;;;;4.60;3.33;;;;;;;;;;5137332;27;20441;-73
2022/10/02 03:22:35;;;;;;;4.03;3.40;;;;;;;;;;5101521;27;20054;-73
2022/10/02 03:25:23;;;;;;;5.68;3.65;;;;;;;;;;5122182;27;20433;-74
2022/10/02 03:28:19;;;;;;;6.00;3.55;;;;;;;;;;5136866;27;20433;-74
2022/10/02 03:31:06;;;;;;;5.32;3.30;;;;;;;;;;5137437;27;20012;-74
2022/10/02 03:33:52;;;;;;;4.30;3.53;;;;;;;;;;5121143;27;20368;-74
2022/10/02 03:36:38;;;;;;;8.65;3.90;;;;;;;;;;5121817;27;20117;-74
2022/10/02 03:39:24;;;;;;;4.13;3.72;;;;;;;;;;5136388;27;20488;-74
2022/10/02 03:42:10;;;;;;;5.78;3.95;;;;;;;;;;5136922;27;20072;-75
2022/10/02 03:44:56;;;;;;;4.45;3.42;;;;;;;;;;5136034;27;20027;-74
2022/10/02 03:47:41;;;;;;;6.65;4.03;;;;;;;;;;5136528;27;20108;-74
2022/10/02 03:50:27;;;;;;;7.20;4.00;;;;;;;;;;5136643;27;20030;-74
2022/10/02 03:53:20;;;;;;;4.80;4.03;;;;;;;;;;5135399;27;20015;-74
2022/10/02 03:56:08;;;;;;;6.10;3.85;;;;;;;;;;5120138;27;20030;-73
2022/10/02 03:58:56;;;;;;;5.25;3.67;;;;;;;;;;5120358;27;20390;-74
2022/10/02 04:01:43;;;;;;;5.63;3.40;;;;;;;;;;5121281;27;20023;-74
2022/10/02 04:04:34;;;;;;;4.03;3.58;;;;;;;;;;5136611;27;20019;-75
2022/10/02 04:07:23;;;;;;;4.00;3.58;;;;;;;;;;5120985;27;20015;-74
2022/10/02 04:10:11;;;;;;;3.65;3.30;;;;;;;;;;5121254;27;20046;-75
2022/10/02 04:13:03;;;;;;;4.15;3.03;;;;;;;;;;5135557;27;20015;-74
2022/10/02 04:15:54;;;;;;;5.90;3.88;;;;;;;;;;5136263;27;20436;-74
2022/10/02 04:18:42;;;;;;;5.35;3.55;;;;;;;;;;5135723;27;20528;-75
2022/10/02 04:21:34;;;;;;;5.57;3.40;;;;;;;;;;5135732;27;20011;-74
2022/10/02 04:24:31;;;;;;;5.05;3.42;;;;;;;;;;5120742;27;20114;-74
2022/10/02 04:27:20;;;;;;;4.13;3.70;;;;;;;;;;5120421;27;20027;-74
2022/10/02 04:30:11;;;;;;;5.75;3.25;;;;;;;;;;5136289;27;20098;-74
2022/10/02 04:33:10;;;;;;;4.38;3.40;;;;;;;;;;5135775;27;20015;-73
2022/10/02 04:35:55;;;;;;;6.00;3.50;;;;;;;;;;5136113;27;20023;-74
2022/10/02 04:38:41;;;;;;;6.05;4.00;;;;;;;;;;5120940;27;20015;-74
2022/10/02 04:41:40;;;;;;;5.65;3.67;;;;;;;;;;5136124;27;20061;-73
2022/10/02 04:44:33;;;;;;;6.05;3.88;;;;;;;;;;5134560;27;20034;-73
2022/10/02 04:47:21;;;;;;;6.03;3.92;;;;;;;;;;5135759;27;20146;-74
2022/10/02 04:50:25;;;;;;;5.10;3.50;;;;;;;;;;5134812;27;20021;-74
2022/10/02 04:53:29;;;;;;;8.38;4.05;;;;;;;;;;5134911;27;20019;-74
2022/10/02 04:56:18;;;;;;;6.75;4.07;;;;;;;;;;5136028;27;20034;-74
2022/10/02 04:59:03;;;;;;;7.38;3.75;;;;;;;;;;5120351;27;20007;-74
2022/10/02 05:02:00;;;;;;;7.05;4.05;;;;;;;;;;5119697;27;20019;-74
2022/10/02 05:04:46;;;;;;;6.82;3.88;;;;;;;;;;5135464;27;20030;-73
2022/10/02 05:07:34;;;;;;;6.20;3.60;;;;;;;;;;5120712;27;20058;-74
2022/10/02 05:10:35;;;;;;;6.38;4.38;;;;;;;;;;5135507;27;20008;-74
2022/10/02 05:13:40;;;;;;;5.15;4.28;;;;;;;;;;5119958;27;20027;-74
2022/10/02 05:16:40;;;;;;;5.47;4.32;;;;;;;;;;5134800;27;20357;-74
2022/10/02 05:19:31;;;;;;;5.07;4.10;;;;;;;;;;5134881;27;20062;-74
2022/10/02 05:22:22;;;;;;;8.00;4.22;;;;;;;;;;5134665;28;20023;-73
2022/10/02 05:25:20;;;;;;;5.55;4.22;;;;;;;;;;5119629;28;20030;-74
2022/10/02 05:28:08;;;;;;;6.05;4.13;;;;;;;;;;5134212;28;20026;-74
2022/10/02 05:31:02;;;;;;;5.90;4.45;;;;;;;;;;5134553;28;20042;-74
2022/10/02 05:34:00;;;;;;;5.13;4.07;;;;;;;;;;5119916;28;20080;-73
2022/10/02 05:37:11;;;;;;;9.02;4.40;;;;;;;;;;5134468;28;20020;-73
2022/10/02 05:40:03;;;;;;;5.72;4.22;;;;;;;;;;5109373;28;20050;-73
2022/10/02 05:42:56;;;;;;;5.13;3.75;;;;;;;;;;5134719;28;20164;-73
2022/10/02 05:45:51;;;;;;;5.10;4.13;;;;;;;;;;5134205;28;20019;-73
2022/10/02 05:48:39;;;;;;;8.25;4.30;;;;;;;;;;5118531;28;20055;-74
2022/10/02 05:51:35;;;;;;;4.68;4.03;;;;;;;;;;5119962;28;20011;-73
2022/10/02 05:54:33;;;;;;;4.78;4.00;;;;;;;;;;5119752;28;20130;-73
2022/10/02 05:57:40;;;;;;;7.63;3.95;;;;;;;;;;5119807;28;20034;-74
2022/10/02 06:00:31;;;;;;;5.15;3.88;;;;;;;;;;5134157;28;20441;-73
2022/10/02 06:03:20;;;;;;;4.85;4.28;;;;;;;;;;5134502;28;20102;-73
2022/10/02 06:06:05;;;;;;;6.35;4.43;;;;;;;;;;5133873;28;20047;-73
2022/10/02 06:08:51;;;;;;;5.20;4.30;;;;;;;;;;5134230;28;20348;-74
2022/10/02 06:11:41;;;;;;;7.57;4.40;;;;;;;;;;5134899;27;20341;-74
2022/10/02 06:14:39;;;;;;;6.93;4.22;;;;;;;;;;5123319;27;20023;-74
2022/10/02 06:17:27;;;;;;;6.20;4.22;;;;;;;;;;5137861;27;20047;-73
2022/10/02 06:20:16;;;;;;;6.20;4.50;;;;;;;;;;5123324;27;20466;-73
2022/10/02 06:23:04;;;;;;;5.15;4.65;;;;;;;;;;5137584;27;20018;-73
2022/10/02 06:25:52;;;;;;;5.63;4.40;;;;;;;;;;5138213;27;20119;-73
2022/10/02 06:28:53;;;;;;;5.78;4.97;;;;;;;;;;5123202;27;20102;-74
2022/10/02 06:31:47;;;;;;;5.47;4.88;;;;;;;;;;5138450;27;20030;-73
2022/10/02 06:34:33;;;;;;;8.07;5.00;;;;;;;;;;5137459;27;20049;-73
2022/10/02 06:37:18;;;;;;;6.32;5.03;;;;;;;;;;5138052;27;20344;-74
2022/10/02 06:40:23;;;;;;;5.55;4.70;;;;;;;;;;5136922;27;20019;-74
2022/10/02 06:43:20;;;;;;;6.45;5.00;;;;;;;;;;5137774;27;20106;-75
2022/10/02 06:46:16;;;;;;;6.80;5.28;;;;;;;;;;5137129;27;20030;-74
2022/10/02 06:49:08;;;;;;;8.55;5.32;;;;;;;;;;5136411;27;20034;-74
2022/10/02 06:51:54;;;;;;;6.40;5.57;;;;;;;;;;5122721;27;20012;-74
2022/10/02 06:54:48;;;;;;;6.85;5.15;;;;;;;;;;5136874;27;20047;-75
2022/10/02 06:57:34;;;;;;;7.82;5.30;;;;;;;;;;5136691;27;20027;-74
2022/10/02 07:00:21;;;;;;;6.40;5.70;;;;;;;;;;5122725;27;20051;-75
2022/10/02 07:03:15;;;;;;;8.35;5.00;;;;;;;;;;5137719;27;20095;-74
2022/10/02 07:06:01;;;;;;;6.10;4.95;;;;;;;;;;5137772;27;20461;-74
2022/10/02 07:09:00;;;;;;;6.95;5.05;;;;;;;;;;5137694;27;20027;-75
2022/10/02 07:11:55;;;;;;;5.97;4.85;;;;;;;;;;5137571;27;20098;-74
2022/10/02 07:14:46;;;;;;;7.28;5.07;;;;;;;;;;5137292;27;20019;-74
2022/10/02 07:17:47;;;;;;;5.45;4.95;;;;;;;;;;5136444;27;20329;-73
2022/10/02 07:20:36;;;;;;;13.02;10.55;;;;;;;;;;5136916;27;20085;-74
2022/10/02 07:23:31;;;;;;;6.93;5.00;;;;;;;;;;5120093;28;20356;-74
2022/10/02 07:26:36;;;;;;;6.32;5.00;;;;;;;;;;5121557;27;20050;-74
2022/10/02 07:29:24;;;;;;;5.47;4.95;;;;;;;;;;5137317;27;20380;-74
2022/10/02 07:32:16;;;;;;;5.20;4.70;;;;;;;;;;5136177;27;20047;-74
2022/10/02 07:35:24;;;;;;;7.13;4.53;;;;;;;;;;5136163;27;20084;-74
2022/10/02 07:38:41;;;;;;;5.95;4.65;;;;;;;;;;5136065;27;20023;-73
2022/10/02 07:41:36;;;;;;;7.10;5.22;;;;;;;;;;5136358;27;20062;-74
2022/10/02 07:44:28;;;;;;;6.32;4.80;;;;;;;;;;5136520;27;20027;-73
2022/10/02 07:47:13;;;;;;;4.47;3.83;;;;;;;;;;5136407;27;20441;-75
2022/10/02 07:50:22;;;;;;;4.55;3.80;;;;;;;;;;5136447;27;20043;-74
2022/10/02 07:53:12;;;;;;;5.20;3.88;;;;;;;;;;5136572;27;20019;-75
2022/10/02 07:55:58;;;;;;;6.75;3.90;;;;;;;;;;5135533;27;20023;-74
2022/10/02 07:58:50;;;;;;;8.23;3.33;;;;;;;;;;5122370;27;20080;-72
2022/10/02 08:01:38;;;;;;;4.00;2.92;;;;;;;;;;5121824;27;20134;-75
2022/10/02 08:04:31;;;;;;;4.68;2.40;;;;;;;;;;5120311;27;20463;-74
2022/10/02 08:07:17;;;;;;;4.78;2.45;;;;;;;;;;5136560;27;20356;-74
2022/10/02 08:10:04;;;;;;;3.08;2.20;;;;;;;;;;5136111;27;20094;-76
2022/10/02 08:12:53;;;;;;;3.17;2.00;;;;;;;;;;5139735;27;20022;-74
2022/10/02 08:15:41;;;;;;;5.35;2.47;;;;;;;;;;5125347;27;20023;-73
2022/10/02 08:18:29;;;;;;;4.47;2.15;;;;;;;;;;5141432;27;20023;-73
2022/10/02 08:21:20;;;;;;;3.80;1.73;;;;;;;;;;5123283;27;20023;-73
2022/10/02 08:24:11;;;;;;;5.25;2.00;;;;;;;;;;5122230;27;20030;-72
2022/10/02 08:27:09;;;;;;;3.85;1.70;;;;;;;;;;5135508;27;20057;-73
2022/10/02 08:29:58;;;;;;;6.45;1.70;;;;;;;;;;5135921;27;20015;-73
2022/10/02 08:32:46;;;;;;;3.60;2.33;;;;;;;;;;5135180;27;20019;-74
2022/10/02 08:35:37;;;;;;;5.93;2.20;;;;;;;;;;5135321;27;20047;-72
2022/10/02 08:38:55;;;;;;;2.38;1.65;;;;;;;;;;5120890;27;20356;-77
2022/10/02 08:42:00;;;;;;;4.65;3.45;;;;;;;;;;5093956;27;20518;-74
2022/10/02 08:44:45;;;;;;;35.72;19.80;;;;;;;;;;5120983;27;20023;-75
2022/10/02 08:47:40;;;;;;;5.43;2.63;;;;;;;;;;5135516;27;20019;-75
2022/10/02 08:50:37;;;;;;;4.13;1.70;;;;;;;;;;5138625;27;20131;-76
2022/10/02 08:53:31;;;;;;;2.67;1.50;;;;;;;;;;5123207;27;20015;-74
2022/10/02 08:56:29;;;;;;;2.13;1.50;;;;;;;;;;5143707;27;20110;-74
2022/10/02 08:59:36;;;;;;;2.70;1.40;;;;;;;;;;5127562;27;20015;-75
2022/10/02 09:02:31;;;;;;;3.28;1.73;;;;;;;;;;5135320;27;20475;-75
2022/10/02 09:05:38;;;;;;;2.83;1.40;;;;;;;;;;5134883;27;20068;-76
2022/10/02 09:08:43;;;;;;;2.80;1.45;;;;;;;;;;5120450;27;20360;-74
2022/10/02 09:11:49;;;;;;;3.28;1.42;;;;;;;;;;5135000;27;20019;-74
2022/10/02 09:14:44;;;;;;;5.15;1.38;;;;;;;;;;5135311;27;20066;-75
2022/10/02 09:17:31;;;;;;;3.85;1.50;;;;;;;;;;5120375;27;20076;-72
2022/10/02 09:20:22;;;;;;;3.72;1.50;;;;;;;;;;5135430;27;20076;-75
2022/10/02 09:23:08;;;;;;;2.85;1.50;;;;;;;;;;5134560;27;20024;-76
2022/10/02 09:26:12;;;;;;;3.15;1.30;;;;;;;;;;5134365;28;20504;-75
2022/10/02 09:29:18;;;;;;;3.47;1.30;;;;;;;;;;5119975;28;20019;-75
2022/10/02 09:32:23;;;;;;;3.13;1.30;;;;;;;;;;5134205;28;20023;-74
2022/10/02 09:35:41;;;;;;;4.05;1.50;;;;;;;;;;5134711;28;20019;-75
2022/10/02 09:38:28;;;;;;;2.83;1.40;;;;;;;;;;5092079;28;20027;-75
2022/10/02 09:41:17;;;;;;;3.72;1.30;;;;;;;;;;5134289;28;20334;-75
2022/10/02 09:44:05;;;;;;;5.90;1.70;;;;;;;;;;5120060;28;20047;-77
2022/10/02 09:46:56;;;;;;;2.85;1.10;;;;;;;;;;5121041;27;20019;-74
2022/10/02 09:49:48;;;;;;;1.90;1.38;;;;;;;;;;5124333;27;20053;-75
2022/10/02 09:52:34;;;;;;;1.88;1.20;;;;;;;;;;5124124;27;20015;-75
2022/10/02 09:55:38;;;;;;;2.33;1.30;;;;;;;;;;5137742;27;20062;-76
2022/10/02 09:58:23;;;;;;;6.47;1.45;;;;;;;;;;5138162;27;20041;-76
2022/10/02 10:01:12;;;;;;;1.30;1.10;;;;;;;;;;5138727;27;20030;-76
2022/10/02 10:03:57;;;;;;;1.77;1.30;;;;;;;;;;5137985;27;20019;-75
2022/10/02 10:06:43;;;;;;;1.88;1.20;;;;;;;;;;5138090;27;20019;-74
2022/10/02 10:09:55;;;;;;;2.65;1.40;;;;;;;;;;5138440;27;20137;-76
2022/10/02 10:12:56;;;;;;;1.45;1.13;;;;;;;;;;5103898;27;20035;-76
2022/10/02 10:16:00;;;;;;;3.55;1.20;;;;;;;;;;5123369;27;20147;-75
2022/10/02 10:19:04;;;;;;;1.67;0.90;;;;;;;;;;5138996;27;20362;-78
2022/10/02 10:22:04;;;;;;;2.00;1.20;;;;;;;;;;5124189;27;20015;-76
2022/10/02 10:25:02;;;;;;;2.83;1.20;;;;;;;;;;5139149;27;20027;-78
2022/10/02 10:28:06;;;;;;;3.95;1.05;;;;;;;;;;5123519;27;20019;-77
2022/10/02 10:31:01;;;;;;;1.58;1.00;;;;;;;;;;5138071;27;20015;-76
2022/10/02 10:33:56;;;;;;;5.10;1.15;;;;;;;;;;5137232;27;20167;-75
2022/10/02 10:40:07;;;;;;;3.55;1.05;;;;;;;;;;5138062;27;20019;-76
2022/10/02 10:43:08;;;;;;;6.25;1.20;;;;;;;;;;5137244;27;20443;-75
2022/10/02 10:46:01;;;;;;;3.40;1.00;;;;;;;;;;5136775;27;20456;-76
2022/10/02 10:49:00;;;;;;;4.00;1.17;;;;;;;;;;5122990;27;20106;-76
2022/10/02 10:52:02;;;;;;;5.55;1.10;;;;;;;;;;5136768;27;20020;-75
2022/10/02 10:55:18;;;;;;;2.40;1.10;;;;;;;;;;5136489;27;20138;-77
2022/10/02 10:58:22;;;;;;;2.53;1.00;;;;;;;;;;5129722;27;20100;-77
2022/10/02 11:01:08;;;;;;;1.13;0.80;;;;;;;;;;5122653;27;20020;-75
2022/10/02 11:04:03;;;;;;;2.75;0.93;;;;;;;;;;5136781;27;20023;-76
2022/10/02 11:07:08;;;;;;;2.58;1.23;;;;;;;;;;5122420;27;20137;-75
2022/10/02 11:10:14;;;;;;;3.05;1.00;;;;;;;;;;5137441;27;20031;-76
2022/10/02 11:13:12;;;;;;;2.67;0.98;;;;;;;;;;5137986;27;20505;-76
2022/10/02 11:16:06;;;;;;;1.08;0.85;;;;;;;;;;5122225;27;20330;-74
2022/10/02 11:19:03;;;;;;;2.83;0.90;;;;;;;;;;5137511;27;20081;-75
2022/10/02 11:21:55;;;;;;;1.70;0.95;;;;;;;;;;5137525;27;20079;-74
2022/10/02 11:24:54;;;;;;;4.25;1.02;;;;;;;;;;5136390;27;20162;-75
2022/10/02 11:27:56;;;;;;;1.20;0.85;;;;;;;;;;5137052;27;20023;-76
2022/10/02 11:31:08;;;;;;;0.90;0.63;;;;;;;;;;5136442;27;20023;-76
2022/10/02 11:33:53;;;;;;;4.40;0.95;;;;;;;;;;5104087;27;20023;-74
2022/10/02 11:36:42;;;;;;;2.33;0.70;;;;;;;;;;5135775;27;20436;-75
2022/10/02 11:39:44;;;;;;;4.65;0.68;;;;;;;;;;5136251;27;20403;-75
2022/10/02 11:42:45;;;;;;;2.83;0.70;;;;;;;;;;5122778;27;20016;-75
2022/10/02 11:45:58;;;;;;;1.05;0.60;;;;;;;;;;5122255;27;20027;-75
2022/10/02 11:48:52;;;;;;;2.17;0.70;;;;;;;;;;5122635;27;20352;-76
2022/10/02 11:51:57;;;;;;;2.90;0.70;;;;;;;;;;5136853;27;20470;-76
2022/10/02 11:54:56;;;;;;;2.33;0.68;;;;;;;;;;5121313;27;20058;-76
2022/10/02 11:57:51;;;;;;;4.60;0.82;;;;;;;;;;5135504;27;20034;-76
2022/10/02 12:00:55;;;;;;;4.28;0.75;;;;;;;;;;5137432;27;20030;-75
2022/10/02 12:03:49;;;;;;;2.13;0.65;;;;;;;;;;5136899;27;20027;-75
2022/10/02 12:06:41;;;;;;;3.40;0.88;;;;;;;;;;5136362;27;20109;-75
2022/10/02 12:09:45;;;;;;;1.60;0.50;;;;;;;;;;5135445;27;20015;-76
2022/10/02 12:12:35;;;;;;;2.53;0.90;;;;;;;;;;5135881;27;20325;-75
2022/10/02 12:15:39;;;;;;;3.58;1.00;;;;;;;;;;5136646;27;20031;-75
2022/10/02 12:18:30;;;;;;;2.17;0.80;;;;;;;;;;5147561;27;20044;-74
2022/10/02 12:28:09;;;;;;;2.92;0.88;;;;;;;;;;5138994;27;20098;-74
2022/10/02 12:30:54;;;;;;;3.63;0.70;;;;;;;;;;5105803;27;20046;-75
2022/10/02 12:33:46;;;;;;;3.25;0.70;;;;;;;;;;5123446;27;20027;-75
2022/10/02 12:36:37;;;;;;;1.10;0.80;;;;;;;;;;5145543;27;20019;-76
2022/10/02 12:39:34;;;;;;;4.03;0.85;;;;;;;;;;5148964;27;20012;-75
2022/10/02 12:42:39;;;;;;;2.45;0.70;;;;;;;;;;5136570;27;20038;-76
2022/10/02 12:45:44;;;;;;;2.03;0.70;;;;;;;;;;5120058;27;20070;-75
2022/10/02 12:48:48;;;;;;;4.18;0.70;;;;;;;;;;5135107;27;20019;-75
2022/10/02 12:52:03;;;;;;;1.95;0.77;;;;;;;;;;5135141;27;20114;-76
2022/10/02 12:54:58;;;;;;;2.65;0.60;;;;;;;;;;5127583;27;20038;-76
2022/10/02 12:58:09;;;;;;;4.60;0.80;;;;;;;;;;5135764;27;20397;-74
2022/10/02 13:00:54;;;;;;;1.15;0.73;;;;;;;;;;5096135;27;20031;-75
2022/10/02 13:04:12;;;;;;;4.78;0.80;;;;;;;;;;5135293;27;20046;-75
2022/10/02 13:07:00;;;;;;;1.45;0.80;;;;;;;;;;5136828;27;20026;-76
2022/10/02 13:10:13;;;;;;;3.13;0.90;;;;;;;;;;5138907;27;20019;-74
2022/10/02 13:13:11;;;;;;;1.67;0.90;;;;;;;;;;5135796;27;20053;-74
2022/10/02 13:16:18;;;;;;;3.13;0.90;;;;;;;;;;5120589;27;20019;-75
2022/10/02 13:19:22;;;;;;;2.58;0.80;;;;;;;;;;5119758;27;20099;-75
2022/10/02 13:22:16;;;;;;;4.43;0.98;;;;;;;;;;5119039;28;20015;-73
2022/10/02 13:25:20;;;;;;;1.52;1.02;;;;;;;;;;5134762;28;20452;-74
2022/10/02 13:28:12;;;;;;;1.73;0.90;;;;;;;;;;5135273;28;20079;-74
2022/10/02 13:31:10;;;;;;;1.95;0.95;;;;;;;;;;5134334;28;20015;-74
2022/10/02 13:34:05;;;;;;;1.25;0.85;;;;;;;;;;5119566;28;20357;-73
2022/10/02 13:37:03;;;;;;;0.85;0.70;;;;;;;;;;5134157;28;20023;-74
2022/10/02 13:39:52;;;;;;;1.77;0.90;;;;;;;;;;5135064;28;20098;-74
2022/10/02 13:42:43;;;;;;;1.48;0.90;;;;;;;;;;5134893;28;20015;-75
2022/10/02 13:45:37;;;;;;;2.60;0.85;;;;;;;;;;5134311;28;20020;-75
2022/10/02 13:48:42;;;;;;;2.50;0.88;;;;;;;;;;5136014;28;20057;-73
2022/10/02 13:51:28;;;;;;;0.95;0.68;;;;;;;;;;5121380;28;20112;-75
2022/10/02 13:54:30;;;;;;;5.47;1.17;;;;;;;;;;5135139;27;20046;-73
2022/10/02 13:57:34;;;;;;;2.58;1.00;;;;;;;;;;5136895;28;20114;-74
2022/10/02 14:00:39;;;;;;;2.95;1.42;;;;;;;;;;5124757;28;20034;-73
2022/10/02 14:03:43;;;;;;;3.47;1.00;;;;;;;;;;5133910;28;20024;-73
2022/10/02 14:06:32;;;;;;;3.92;1.70;;;;;;;;;;5119894;28;20030;-74
2022/10/02 14:09:42;;;;;;;4.10;1.08;;;;;;;;;;5134419;28;20015;-74
2022/10/02 14:12:33;;;;;;;5.93;1.00;;;;;;;;;;5134953;28;20463;-75
2022/10/02 14:15:25;;;;;;;2.28;1.02;;;;;;;;;;5119586;28;20357;-74
2022/10/02 14:18:11;;;;;;;2.85;0.93;;;;;;;;;;5134038;28;20046;-74
2022/10/02 14:21:16;;;;;;;1.50;0.73;;;;;;;;;;5119833;28;20455;-74
2022/10/02 14:24:10;;;;;;;2.33;1.42;;;;;;;;;;5134020;28;20487;-74
2022/10/02 14:27:11;;;;;;;4.35;1.00;;;;;;;;;;5134066;28;20015;-74
2022/10/02 14:30:05;;;;;;;5.05;1.08;;;;;;;;;;5118437;28;20114;-75
2022/10/02 14:33:10;;;;;;;4.45;0.93;;;;;;;;;;5120767;27;20015;-74
2022/10/02 14:36:04;;;;;;;4.65;0.90;;;;;;;;;;5137452;27;20151;-76
2022/10/02 14:39:00;;;;;;;3.17;1.05;;;;;;;;;;5137350;27;20018;-74
2022/10/02 14:41:52;;;;;;;1.40;1.00;;;;;;;;;;5109402;27;20023;-74
2022/10/02 14:44:41;;;;;;;1.77;1.00;;;;;;;;;;5137231;27;20015;-74
2022/10/02 14:47:32;;;;;;;1.67;0.90;;;;;;;;;;5122858;27;20027;-74
2022/10/02 14:50:24;;;;;;;2.92;1.00;;;;;;;;;;5137382;27;20055;-74
2022/10/02 14:53:28;;;;;;;1.83;1.10;;;;;;;;;;5122494;27;20015;-75
2022/10/02 14:56:14;;;;;;;3.17;0.98;;;;;;;;;;5121613;27;20445;-75
2022/10/02 14:59:16;;;;;;;1.33;0.90;;;;;;;;;;5137188;27;20047;-74
2022/10/02 15:02:22;;;;;;;4.82;0.77;;;;;;;;;;5122717;27;20315;-75
2022/10/02 15:05:17;;;;;;;4.03;0.80;;;;;;;;;;5137328;27;20134;-76
2022/10/02 15:08:08;;;;;;;3.55;0.80;;;;;;;;;;5122758;27;20034;-77
2022/10/02 15:10:55;;;;;;;1.95;0.90;;;;;;;;;;5137403;27;20114;-75
2022/10/02 15:13:47;;;;;;;1.05;0.73;;;;;;;;;;5137149;27;20055;-74
2022/10/02 15:19:50;;;;;;;3.17;0.80;;;;;;;;;;5137097;27;20012;-74
2022/10/02 15:22:45;;;;;;;5.78;1.45;;;;;;;;;;5122189;27;20441;-74
2022/10/02 15:25:49;;;;;;;4.65;2.40;;;;;;;;;;5136324;27;20088;-75
2022/10/02 15:28:35;;;;;;;1.90;1.20;;;;;;;;;;5136452;27;20019;-76
2022/10/02 15:31:39;;;;;;;5.05;2.38;;;;;;;;;;5136733;27;20076;-75
2022/10/02 15:34:30;;;;;;;1.92;0.90;;;;;;;;;;5136944;27;20031;-74
2022/10/02 15:37:16;;;;;;;1.85;0.85;;;;;;;;;;5136417;27;20019;-75
2022/10/02 15:40:07;;;;;;;2.38;0.90;;;;;;;;;;5136624;27;20439;-74
2022/10/02 15:42:59;;;;;;;4.05;1.20;;;;;;;;;;5120877;27;20102;-75
2022/10/02 15:45:48;;;;;;;2.45;1.15;;;;;;;;;;5120432;27;20421;-75
2022/10/02 15:48:33;;;;;;;2.53;1.00;;;;;;;;;;5136012;27;20019;-75
2022/10/02 15:51:37;;;;;;;2.63;0.93;;;;;;;;;;5136200;27;20031;-74
2022/10/02 15:54:29;;;;;;;1.98;1.25;;;;;;;;;;5121418;27;20043;-74
2022/10/02 15:57:33;;;;;;;1.98;1.13;;;;;;;;;;5121799;27;20019;-73
2022/10/02 16:00:20;;;;;;;1.67;0.98;;;;;;;;;;5121527;27;20087;-74
2022/10/02 16:03:06;;;;;;;2.35;1.02;;;;;;;;;;5135075;27;20361;-74
2022/10/02 16:05:55;;;;;;;1.23;1.00;;;;;;;;;;5137800;27;20023;-77
2022/10/02 16:08:47;;;;;;;3.05;1.10;;;;;;;;;;5134709;27;20031;-74
2022/10/02 16:11:39;;;;;;;2.35;1.40;;;;;;;;;;5121743;27;20027;-76
2022/10/02 16:14:34;;;;;;;4.15;1.40;;;;;;;;;;5121080;27;20019;-74
2022/10/02 16:17:38;;;;;;;2.03;1.10;;;;;;;;;;5135956;27;20084;-74
2022/10/02 16:20:23;;;;;;;6.03;1.10;;;;;;;;;;5135747;27;20065;-74
2022/10/02 16:23:09;;;;;;;1.88;1.10;;;;;;;;;;5135348;27;20441;-74
2022/10/02 16:26:13;;;;;;;2.33;1.50;;;;;;;;;;5135317;27;20445;-74
2022/10/02 16:29:25;;;;;;;4.47;2.47;;;;;;;;;;5136247;27;20023;-75
2022/10/02 16:32:26;;;;;;;4.22;1.83;;;;;;;;;;5122028;27;20083;-73
2022/10/02 16:35:15;;;;;;;5.03;1.60;;;;;;;;;;5135973;27;20026;-73
2022/10/02 16:38:30;;;;;;;2.63;1.25;;;;;;;;;;5134999;27;20026;-75
2022/10/02 16:41:37;;;;;;;2.15;1.10;;;;;;;;;;5128217;27;20035;-74
2022/10/02 16:44:28;;;;;;;2.22;1.38;;;;;;;;;;5135026;27;20122;-76
2022/10/02 16:47:40;;;;;;;5.03;1.33;;;;;;;;;;5135080;27;20051;-75
2022/10/02 16:50:44;;;;;;;1.33;1.00;;;;;;;;;;5120974;27;20051;-74
2022/10/02 16:53:40;;;;;;;1.92;1.58;;;;;;;;;;5120061;27;20096;-75
2022/10/02 16:56:30;;;;;;;2.60;1.20;;;;;;;;;;5120955;27;20019;-73
2022/10/02 16:59:39;;;;;;;3.90;1.38;;;;;;;;;;5135907;27;20113;-73
2022/10/02 17:02:44;;;;;;;6.50;1.80;;;;;;;;;;5123971;27;20037;-74
2022/10/02 17:05:54;;;;;;;4.75;2.55;;;;;;;;;;5141981;27;20453;-73
2022/10/02 17:08:50;;;;;;;4.25;1.80;;;;;;;;;;5120281;27;20394;-73
2022/10/02 17:11:44;;;;;;;5.53;1.52;;;;;;;;;;5135303;27;20015;-74
2022/10/02 17:14:30;;;;;;;3.03;1.30;;;;;;;;;;5135772;27;20075;-74
2022/10/02 17:17:34;;;;;;;3.90;1.40;;;;;;;;;;5136030;27;20445;-75
2022/10/02 17:20:25;;;;;;;2.55;1.20;;;;;;;;;;5134395;27;20023;-75
2022/10/02 17:23:19;;;;;;;2.00;1.30;;;;;;;;;;5134909;27;20034;-75
2022/10/02 17:26:07;;;;;;;2.65;1.90;;;;;;;;;;5120235;28;20019;-76
2022/10/02 17:29:05;;;;;;;2.90;2.00;;;;;;;;;;5135193;28;20055;-74
2022/10/02 17:32:00;;;;;;;3.20;1.60;;;;;;;;;;5119956;28;20025;-73
2022/10/02 17:34:48;;;;;;;2.30;1.48;;;;;;;;;;5119320;28;20012;-73
2022/10/02 17:37:46;;;;;;;3.00;1.40;;;;;;;;;;5119425;28;20023;-73